createdAt,value
2023-05-14T00:00:19.251Z,97.40
2023-05-14T00:02:47.881Z,97.40
2023-05-14T00:05:17.736Z,97.50
2023-05-14T00:07:45.953Z,97.50
2023-05-14T00:10:14.301Z,97.50
2023-05-14T00:12:43.021Z,97.50
2023-05-14T00:15:12.497Z,97.60
2023-05-14T00:17:42.792Z,97.60
2023-05-14T00:20:12.584Z,97.90
2023-05-14T00:22:42.528Z,98.10
2023-05-14T00:25:11.451Z,98.00
2023-05-14T00:27:39.990Z,98.10
2023-05-14T00:30:09.070Z,98.30
2023-05-14T00:32:37.286Z,98.20
2023-05-14T00:35:07.922Z,98.30
2023-05-14T00:37:36.513Z,98.30
2023-05-14T00:40:08.582Z,98.40
2023-05-14T00:42:36.918Z,98.40
2023-05-14T00:45:06.071Z,98.40
2023-05-14T00:47:34.937Z,98.30
2023-05-14T00:50:03.976Z,98.20
2023-05-14T00:52:32.793Z,98.10
2023-05-14T00:55:01.873Z,97.90
2023-05-14T00:57:31.646Z,97.80
2023-05-14T01:00:00.794Z,97.70
2023-05-14T01:02:29.109Z,97.50
2023-05-14T01:04:58.596Z,97.40
2023-05-14T01:07:32.337Z,97.40
2023-05-14T01:10:04.904Z,97.40
2023-05-14T01:12:41.551Z,97.50
2023-05-14T01:15:12.996Z,97.40
2023-05-14T01:17:47.123Z,97.50
2023-05-14T01:20:16.148Z,97.50
2023-05-14T01:22:45.901Z,97.50
2023-05-14T01:25:14.133Z,97.30
2023-05-14T01:27:48.281Z,97.20
2023-05-14T01:30:23.216Z,97.10
2023-05-14T01:32:57.483Z,97.10
2023-05-14T01:35:28.932Z,97.10
2023-05-14T01:38:00.687Z,97.20
2023-05-14T01:40:29.556Z,97.20
2023-05-14T01:42:58.620Z,97.20
2023-05-14T01:45:27.291Z,97.20
2023-05-14T01:47:55.599Z,97.30
2023-05-14T01:50:24.054Z,97.30
2023-05-14T01:52:53.564Z,97.30
2023-05-14T01:55:23.821Z,97.20
2023-05-14T01:57:52.448Z,97.10
2023-05-14T02:00:20.999Z,97.00
2023-05-14T02:02:49.413Z,96.90
2023-05-14T02:05:17.761Z,96.70
2023-05-14T02:07:46.259Z,96.60
2023-05-14T02:10:14.499Z,96.40
2023-05-14T02:12:44.028Z,96.30
2023-05-14T02:15:12.690Z,96.20
2023-05-14T02:17:41.073Z,96.40
2023-05-14T02:20:11.056Z,96.00
2023-05-14T02:22:42.317Z,95.90
2023-05-14T02:25:11.518Z,96.10
2023-05-14T02:27:40.221Z,95.80
2023-05-14T02:30:11.678Z,95.20
2023-05-14T02:32:40.284Z,95.80
2023-05-14T02:35:10.596Z,95.80
2023-05-14T02:37:38.783Z,95.80
2023-05-14T02:40:08.325Z,95.80
2023-05-14T02:42:36.644Z,95.80
2023-05-14T02:45:05.236Z,95.90
2023-05-14T02:47:37.703Z,95.90
2023-05-14T02:50:07.658Z,95.80
2023-05-14T02:52:35.884Z,96.10
2023-05-14T02:55:04.846Z,95.70
2023-05-14T02:57:33.022Z,95.60
2023-05-14T03:00:01.238Z,95.30
2023-05-14T03:02:30.143Z,95.40
2023-05-14T03:05:00.172Z,95.10
2023-05-14T03:07:28.400Z,95.20
2023-05-14T03:09:56.816Z,95.10
2023-05-14T03:12:25.026Z,95.00
2023-05-14T03:14:53.172Z,94.90
2023-05-14T03:17:21.412Z,94.80
2023-05-14T03:19:49.653Z,94.80
2023-05-14T03:22:19.455Z,94.70
2023-05-14T03:24:47.709Z,94.70
2023-05-14T03:27:15.845Z,94.60
2023-05-14T03:29:44.001Z,94.60
2023-05-14T03:32:12.311Z,94.60
2023-05-14T03:34:40.640Z,94.60
2023-05-14T03:37:08.928Z,94.50
2023-05-14T03:39:38.717Z,94.50
2023-05-14T03:42:07.280Z,94.50
2023-05-14T03:44:35.759Z,94.50
2023-05-14T03:47:04.015Z,94.50
2023-05-14T03:49:32.217Z,94.30
2023-05-14T03:52:00.446Z,94.30
2023-05-14T03:54:28.629Z,94.30
2023-05-14T03:56:58.715Z,94.40
2023-05-14T03:59:26.990Z,94.40
2023-05-14T04:01:55.244Z,94.50
2023-05-14T04:04:23.412Z,94.40
2023-05-14T04:06:51.573Z,94.50
2023-05-14T04:09:19.589Z,94.50
2023-05-14T04:11:47.800Z,94.50
2023-05-14T04:14:17.302Z,94.60
2023-05-14T04:16:45.516Z,94.60
2023-05-14T04:19:14.034Z,94.70
2023-05-14T04:21:42.154Z,94.70
2023-05-14T04:24:10.306Z,94.80
2023-05-14T04:26:38.353Z,94.80
2023-05-14T04:29:06.424Z,94.80
2023-05-14T04:31:36.036Z,94.80
2023-05-14T04:34:04.110Z,94.70
2023-05-14T04:36:32.373Z,94.70
2023-05-14T04:39:00.641Z,94.60
2023-05-14T04:41:28.669Z,94.70
2023-05-14T04:43:58.052Z,94.60
2023-05-14T04:46:26.545Z,94.60
2023-05-14T04:48:56.918Z,94.50
2023-05-14T04:51:26.353Z,94.40
2023-05-14T04:53:54.525Z,94.20
2023-05-14T04:56:22.665Z,94.00
2023-05-14T04:58:50.733Z,93.90
2023-05-14T05:01:18.974Z,93.60
2023-05-14T05:03:47.195Z,93.50
2023-05-14T05:06:16.705Z,93.50
2023-05-14T05:08:44.751Z,93.00
2023-05-14T05:11:12.847Z,93.00
2023-05-14T05:13:40.925Z,92.90
2023-05-14T05:16:09.158Z,91.80
2023-05-14T05:18:37.224Z,87.60
2023-05-14T05:21:05.317Z,84.70
2023-05-14T05:23:34.764Z,82.60
2023-05-14T05:26:03.079Z,83.80
2023-05-14T05:28:31.146Z,85.00
2023-05-14T05:30:59.305Z,85.70
2023-05-14T05:33:27.550Z,86.10
2023-05-14T05:35:55.619Z,86.80
2023-05-14T05:38:23.846Z,87.30
2023-05-14T05:40:53.803Z,87.60
2023-05-14T05:43:22.143Z,87.90
2023-05-14T05:45:50.383Z,87.70
2023-05-14T05:48:18.510Z,88.30
2023-05-14T05:50:50.159Z,86.80
2023-05-14T05:53:18.476Z,85.90
2023-05-14T05:55:46.566Z,82.20
2023-05-14T05:58:17.289Z,80.20
2023-05-14T06:00:45.700Z,79.20
2023-05-14T06:03:14.613Z,79.20
2023-05-14T06:05:42.824Z,80.00
2023-05-14T06:08:10.872Z,80.00
2023-05-14T06:10:38.918Z,81.00
2023-05-14T06:13:06.995Z,81.70
2023-05-14T06:15:36.482Z,82.40
2023-05-14T06:18:04.650Z,83.40
2023-05-14T06:20:32.781Z,82.50
2023-05-14T06:23:01.004Z,82.10
2023-05-14T06:25:29.201Z,82.20
2023-05-14T06:27:57.316Z,81.80
2023-05-14T06:30:25.721Z,82.40
2023-05-14T06:32:55.477Z,82.80
2023-05-14T06:35:24.464Z,83.60
2023-05-14T06:37:52.628Z,84.80
2023-05-14T06:40:21.232Z,84.50
2023-05-14T06:42:49.549Z,84.50
2023-05-14T06:45:17.725Z,84.70
2023-05-14T06:47:45.879Z,84.70
2023-05-14T06:50:15.361Z,84.10
2023-05-14T06:52:45.090Z,84.30
2023-05-14T06:55:13.129Z,84.50
2023-05-14T06:57:41.257Z,85.00
2023-05-14T07:00:10.456Z,85.20
2023-05-14T07:02:38.557Z,85.40
2023-05-14T07:05:08.542Z,85.00
2023-05-14T07:07:38.035Z,84.80
2023-05-14T07:10:08.154Z,85.20
2023-05-14T07:12:36.192Z,85.10
2023-05-14T07:15:04.565Z,84.80
2023-05-14T07:17:32.724Z,85.10
2023-05-14T07:20:00.963Z,84.80
2023-05-14T07:22:29.057Z,84.90
2023-05-14T07:24:58.470Z,84.40
2023-05-14T07:27:26.580Z,83.70
2023-05-14T07:29:54.689Z,83.70
2023-05-14T07:32:25.251Z,83.60
2023-05-14T07:34:53.307Z,83.30
2023-05-14T07:37:24.148Z,82.50
2023-05-14T07:39:52.377Z,82.80
2023-05-14T07:42:34.375Z,83.40
2023-05-14T07:45:03.950Z,82.10
2023-05-14T07:47:32.371Z,82.90
2023-05-14T07:50:00.899Z,82.50
2023-05-14T07:52:28.989Z,80.70
2023-05-14T07:54:57.147Z,80.60
2023-05-14T07:57:26.622Z,79.20
2023-05-14T07:59:54.726Z,78.40
2023-05-14T08:02:23.052Z,77.70
2023-05-14T08:04:51.170Z,77.90
2023-05-14T08:07:19.187Z,77.50
2023-05-14T08:09:47.264Z,78.00
2023-05-14T08:12:16.111Z,77.00
2023-05-14T08:14:46.047Z,76.10
2023-05-14T08:17:14.472Z,75.40
2023-05-14T08:19:42.551Z,73.80
2023-05-14T08:22:10.628Z,74.20
2023-05-14T08:24:38.668Z,74.20
2023-05-14T08:27:07.200Z,74.50
2023-05-14T08:29:35.320Z,73.00
2023-05-14T08:32:12.178Z,73.40
2023-05-14T08:34:47.895Z,75.20
2023-05-14T08:37:15.994Z,74.40
2023-05-14T08:39:44.097Z,73.30
2023-05-14T08:42:16.768Z,70.80
2023-05-14T08:44:50.094Z,70.40
2023-05-14T08:47:22.316Z,72.70
2023-05-14T08:49:55.943Z,73.40
2023-05-14T08:52:24.352Z,71.50
2023-05-14T08:54:53.853Z,72.40
2023-05-14T08:57:24.647Z,72.50
2023-05-14T08:59:52.758Z,71.40
2023-05-14T09:02:24.826Z,71.00
2023-05-14T09:04:57.129Z,70.90
2023-05-14T09:07:25.692Z,71.20
2023-05-14T09:09:54.347Z,72.50
2023-05-14T09:12:23.274Z,71.70
2023-05-14T09:14:52.170Z,71.80
2023-05-14T09:17:21.744Z,72.10
2023-05-14T09:19:53.327Z,73.10
2023-05-14T09:22:22.370Z,72.20
2023-05-14T09:25:05.095Z,71.00
2023-05-14T09:27:34.274Z,71.20
2023-05-14T09:30:10.477Z,71.40
2023-05-14T09:32:43.859Z,72.00
2023-05-14T09:35:14.735Z,72.30
2023-05-14T09:37:44.064Z,72.40
2023-05-14T09:40:13.558Z,71.70
2023-05-14T09:42:42.057Z,72.60
2023-05-14T09:45:10.990Z,72.90
2023-05-14T09:47:40.833Z,72.00
2023-05-14T09:50:10.114Z,72.60
2023-05-14T09:52:39.279Z,71.60
2023-05-14T09:55:08.312Z,71.60
2023-05-14T09:57:36.616Z,71.40
2023-05-14T10:00:05.331Z,70.70
2023-05-14T10:02:38.809Z,70.70
2023-05-14T10:05:09.670Z,70.60
2023-05-14T10:07:41.650Z,70.00
2023-05-14T10:10:14.760Z,71.60
2023-05-14T10:12:44.855Z,71.70
2023-05-14T10:15:17.829Z,71.30
2023-05-14T10:17:50.667Z,71.50
2023-05-14T10:20:21.336Z,71.40
2023-05-14T10:22:49.687Z,71.40
2023-05-14T10:25:17.896Z,71.60
2023-05-14T10:27:46.364Z,72.00
2023-05-14T10:30:14.674Z,72.00
2023-05-14T10:32:44.228Z,72.60
2023-05-14T10:35:25.323Z,72.70
2023-05-14T10:37:53.464Z,72.60
2023-05-14T10:40:25.158Z,72.90
2023-05-14T10:42:53.951Z,72.70
2023-05-14T10:45:25.163Z,72.90
2023-05-14T10:47:55.257Z,72.80
2023-05-14T10:50:25.547Z,72.70
2023-05-14T10:52:55.332Z,72.90
2023-05-14T10:55:23.919Z,73.50
2023-05-14T10:57:53.855Z,73.70
2023-05-14T11:00:27.712Z,73.00
2023-05-14T11:02:58.082Z,73.40
2023-05-14T11:05:28.244Z,73.50
2023-05-14T11:07:58.896Z,73.20
2023-05-14T11:10:30.098Z,73.50
2023-05-14T11:12:58.936Z,72.70
2023-05-14T11:15:28.334Z,72.00
2023-05-14T11:17:56.575Z,72.60
2023-05-14T11:20:24.985Z,73.00
2023-05-14T11:22:55.344Z,72.70
2023-05-14T11:25:25.634Z,73.10
2023-05-14T11:27:55.998Z,73.70
2023-05-14T11:30:24.361Z,73.60
2023-05-14T11:32:52.750Z,72.80
2023-05-14T11:35:21.563Z,73.10
2023-05-14T11:37:52.747Z,73.40
2023-05-14T11:40:22.768Z,73.60
2023-05-14T11:42:53.309Z,73.40
2023-05-14T11:45:27.011Z,73.80
2023-05-14T11:47:55.430Z,74.60
2023-05-14T11:50:23.944Z,74.80
2023-05-14T11:52:52.370Z,74.40
2023-05-14T11:55:21.925Z,74.30
2023-05-14T11:57:50.087Z,74.60
2023-05-14T12:00:22.225Z,74.80
2023-05-14T12:02:50.981Z,74.90
2023-05-14T12:05:19.640Z,75.10
2023-05-14T12:07:48.839Z,75.00
2023-05-14T12:10:17.017Z,74.80
2023-05-14T12:12:49.354Z,74.80
2023-05-14T12:15:18.177Z,75.20
2023-05-14T12:17:52.215Z,75.10
2023-05-14T12:20:20.439Z,75.10
2023-05-14T12:22:48.558Z,74.60
2023-05-14T12:25:16.857Z,75.10
2023-05-14T12:27:47.654Z,74.60
2023-05-14T12:30:34.301Z,74.20
2023-05-14T12:33:02.507Z,74.40
2023-05-14T12:35:30.648Z,74.80
2023-05-14T12:37:58.656Z,74.30
2023-05-14T12:40:26.842Z,74.20
2023-05-14T12:42:57.016Z,74.50
2023-05-14T12:45:25.265Z,74.20
2023-05-14T12:47:53.519Z,73.30
2023-05-14T12:50:21.898Z,72.80
2023-05-14T12:52:50.278Z,73.40
2023-05-14T12:55:18.666Z,73.50
2023-05-14T12:57:46.854Z,73.50
2023-05-14T13:00:17.204Z,73.60
2023-05-14T13:02:45.373Z,72.90
2023-05-14T13:05:13.734Z,72.90
2023-05-14T13:07:42.123Z,73.20
2023-05-14T13:10:11.516Z,73.10
2023-05-14T13:12:39.924Z,73.30
2023-05-14T13:15:09.190Z,73.30
2023-05-14T13:17:38.970Z,73.40
2023-05-14T13:20:08.417Z,73.10
2023-05-14T13:22:36.756Z,73.10
2023-05-14T13:25:05.980Z,72.40
2023-05-14T13:27:35.848Z,72.80
2023-05-14T13:30:04.894Z,72.80
2023-05-14T13:32:33.338Z,72.70
2023-05-14T13:35:03.291Z,72.60
2023-05-14T13:37:31.716Z,72.30
2023-05-14T13:40:00.221Z,72.00
2023-05-14T13:42:28.746Z,72.70
2023-05-14T13:44:57.518Z,72.30
2023-05-14T13:47:26.122Z,71.90
2023-05-14T13:49:55.046Z,72.10
2023-05-14T13:52:24.865Z,72.00
2023-05-14T13:54:53.458Z,71.60
2023-05-14T13:57:23.095Z,71.60
2023-05-14T13:59:51.448Z,71.70
2023-05-14T14:02:20.026Z,71.90
2023-05-14T14:04:49.403Z,72.10
2023-05-14T14:07:17.890Z,72.00
2023-05-14T14:09:47.692Z,72.00
2023-05-14T14:12:16.342Z,72.80
2023-05-14T14:14:44.677Z,72.20
2023-05-14T14:17:12.891Z,72.50
2023-05-14T14:19:41.451Z,72.00
2023-05-14T14:22:09.765Z,72.10
2023-05-14T14:24:38.140Z,71.90
2023-05-14T14:27:08.228Z,71.80
2023-05-14T14:29:36.868Z,71.40
2023-05-14T14:32:06.201Z,72.00
2023-05-14T14:34:34.541Z,72.00
2023-05-14T14:37:02.967Z,71.00
2023-05-14T14:39:31.327Z,70.50
2023-05-14T14:41:59.892Z,70.90
2023-05-14T14:44:29.729Z,70.70
2023-05-14T14:46:58.079Z,70.90
2023-05-14T14:49:26.279Z,70.80
2023-05-14T14:51:54.412Z,70.60
2023-05-14T14:54:22.438Z,70.50
2023-05-14T14:56:52.405Z,69.70
2023-05-14T14:59:20.570Z,70.00
2023-05-14T15:01:50.089Z,69.30
2023-05-14T15:04:18.300Z,69.60
2023-05-14T15:06:46.366Z,69.10
2023-05-14T15:09:14.457Z,70.10
2023-05-14T15:11:42.645Z,69.60
2023-05-14T15:14:10.721Z,69.20
2023-05-14T15:16:38.852Z,69.40
2023-05-14T15:19:08.542Z,69.00
2023-05-14T15:21:36.773Z,68.80
2023-05-14T15:24:05.394Z,68.70
2023-05-14T15:26:33.879Z,69.00
2023-05-14T15:29:02.065Z,69.10
2023-05-14T15:31:30.165Z,69.30
2023-05-14T15:33:58.635Z,69.10
2023-05-14T15:36:28.630Z,69.40
2023-05-14T15:38:56.771Z,69.90
2023-05-14T15:41:26.198Z,69.10
2023-05-14T15:43:54.355Z,69.30
2023-05-14T15:46:22.795Z,69.50
2023-05-14T15:48:50.986Z,69.40
2023-05-14T15:51:19.110Z,69.60
2023-05-14T15:53:48.593Z,70.20
2023-05-14T15:56:16.854Z,69.80
2023-05-14T15:58:44.942Z,70.20
2023-05-14T16:01:13.222Z,70.50
2023-05-14T16:03:41.701Z,70.60
2023-05-14T16:06:10.002Z,70.70
2023-05-14T16:08:38.574Z,70.50
2023-05-14T16:11:08.444Z,70.60
2023-05-14T16:13:38.382Z,70.70
2023-05-14T16:16:06.934Z,71.20
2023-05-14T16:18:35.570Z,71.50
2023-05-14T16:21:03.729Z,71.40
2023-05-14T16:23:31.899Z,72.00
2023-05-14T16:25:59.985Z,71.90
2023-05-14T16:28:29.517Z,72.20
2023-05-14T16:30:57.620Z,72.80
2023-05-14T16:33:25.942Z,72.60
2023-05-14T16:35:54.137Z,72.90
2023-05-14T16:38:22.614Z,73.00
2023-05-14T16:40:50.806Z,72.80
2023-05-14T16:43:19.043Z,72.60
2023-05-14T16:45:48.610Z,72.80
2023-05-14T16:48:17.140Z,72.80
2023-05-14T16:50:45.463Z,72.60
2023-05-14T16:53:13.618Z,72.60
2023-05-14T16:55:41.874Z,72.50
2023-05-14T16:58:10.026Z,72.40
2023-05-14T17:00:38.228Z,72.30
2023-05-14T17:03:07.961Z,72.80
2023-05-14T17:05:36.249Z,72.60
2023-05-14T17:08:04.989Z,72.40
2023-05-14T17:10:33.593Z,72.30
2023-05-14T17:13:02.325Z,72.40
2023-05-14T17:15:30.672Z,72.50
2023-05-14T17:17:59.073Z,72.40
2023-05-14T17:20:30.639Z,72.50
2023-05-14T17:22:58.722Z,72.40
2023-05-14T17:25:27.818Z,72.50
2023-05-14T17:27:55.899Z,73.10
2023-05-14T17:30:24.226Z,73.80
2023-05-14T17:32:52.397Z,74.30
2023-05-14T17:35:20.568Z,74.50
2023-05-14T17:37:50.187Z,74.70
2023-05-14T17:40:18.371Z,75.00
2023-05-14T17:42:46.598Z,75.30
2023-05-14T17:45:15.494Z,75.20
2023-05-14T17:47:43.668Z,74.80
2023-05-14T17:50:12.037Z,74.90
2023-05-14T17:52:42.145Z,75.00
2023-05-14T17:55:12.057Z,75.30
2023-05-14T17:57:42.050Z,75.30
2023-05-14T18:00:10.934Z,75.40
2023-05-14T18:02:39.134Z,75.80
2023-05-14T18:05:08.015Z,75.60
2023-05-14T18:07:36.745Z,75.80
2023-05-14T18:10:05.446Z,75.90
2023-05-14T18:12:34.933Z,76.30
2023-05-14T18:15:03.146Z,76.50
2023-05-14T18:17:31.241Z,76.70
2023-05-14T18:20:00.220Z,76.90
2023-05-14T18:22:28.354Z,77.00
2023-05-14T18:24:56.470Z,77.20
2023-05-14T18:27:24.645Z,77.40
2023-05-14T18:29:54.416Z,77.40
2023-05-14T18:32:22.530Z,77.50
2023-05-14T18:34:50.592Z,77.80
2023-05-14T18:37:18.799Z,77.80
2023-05-14T18:39:46.879Z,77.90
2023-05-14T18:42:16.597Z,77.90
2023-05-14T18:44:45.004Z,78.40
2023-05-14T18:47:14.532Z,78.50
2023-05-14T18:49:42.741Z,78.60
2023-05-14T18:52:10.838Z,78.70
2023-05-14T18:54:38.910Z,78.90
2023-05-14T18:57:07.278Z,79.10
2023-05-14T18:59:35.535Z,79.20
2023-05-14T19:02:04.169Z,79.50
2023-05-14T19:04:44.326Z,79.60
2023-05-14T19:07:18.987Z,79.90
2023-05-14T19:09:47.208Z,80.10
2023-05-14T19:12:16.090Z,80.40
2023-05-14T19:14:44.247Z,80.50
2023-05-14T19:17:12.413Z,80.80
2023-05-14T19:19:41.845Z,81.00
2023-05-14T19:22:10.004Z,81.30
2023-05-14T19:24:38.595Z,81.40
2023-05-14T19:27:07.101Z,81.50
2023-05-14T19:29:36.740Z,81.80
2023-05-14T19:32:05.463Z,81.10
2023-05-14T19:34:33.707Z,82.40
2023-05-14T19:37:03.302Z,82.70
2023-05-14T19:39:31.531Z,83.00
2023-05-14T19:41:59.572Z,83.30
2023-05-14T19:44:27.606Z,83.50
2023-05-14T19:46:55.848Z,83.80
2023-05-14T19:49:23.922Z,83.90
2023-05-14T19:51:52.020Z,84.00
2023-05-14T19:54:21.595Z,84.30
2023-05-14T19:56:50.346Z,84.50
2023-05-14T19:59:18.526Z,84.70
2023-05-14T20:01:47.202Z,84.80
2023-05-14T20:04:16.135Z,85.00
2023-05-14T20:06:45.454Z,85.10
2023-05-14T20:09:13.789Z,85.30
2023-05-14T20:11:43.301Z,86.10
2023-05-14T20:14:11.423Z,85.60
2023-05-14T20:16:39.695Z,85.70
2023-05-14T20:19:07.875Z,85.90
2023-05-14T20:21:35.997Z,86.20
2023-05-14T20:24:04.155Z,86.60
2023-05-14T20:26:32.269Z,87.00
2023-05-14T20:29:01.789Z,87.00
2023-05-14T20:31:29.935Z,87.40
2023-05-14T20:33:57.980Z,87.60
2023-05-14T20:36:26.152Z,87.80
2023-05-14T20:38:54.226Z,88.10
2023-05-14T20:41:22.393Z,88.10
2023-05-14T20:43:50.520Z,88.40
2023-05-14T20:46:20.106Z,88.40
2023-05-14T20:48:49.216Z,88.60
2023-05-14T20:51:17.885Z,88.70
2023-05-14T20:53:46.885Z,88.80
2023-05-14T20:56:15.286Z,89.00
2023-05-14T20:58:43.779Z,89.00
2023-05-14T21:01:12.465Z,89.20
2023-05-14T21:03:42.344Z,89.10
2023-05-14T21:06:10.919Z,89.00
2023-05-14T21:08:40.488Z,88.90
2023-05-14T21:11:09.347Z,89.10
2023-05-14T21:13:37.822Z,88.50
2023-05-14T21:16:07.294Z,88.70
2023-05-14T21:18:35.887Z,88.60
2023-05-14T21:21:06.422Z,88.70
2023-05-14T21:23:34.946Z,88.90
2023-05-14T21:26:03.521Z,88.70
2023-05-14T21:28:32.138Z,88.90
2023-05-14T21:31:00.662Z,88.90
2023-05-14T21:33:29.133Z,89.00
2023-05-14T21:35:57.443Z,89.50
2023-05-14T21:38:27.216Z,89.50
2023-05-14T21:40:55.564Z,89.60
2023-05-14T21:43:23.998Z,89.70
2023-05-14T21:45:52.437Z,89.80
2023-05-14T21:48:22.471Z,90.00
2023-05-14T21:50:51.023Z,90.10
2023-05-14T21:53:19.488Z,90.20
2023-05-14T21:55:49.947Z,90.40
2023-05-14T21:58:18.481Z,90.60
2023-05-14T22:00:46.996Z,90.70
2023-05-14T22:03:15.652Z,90.60
2023-05-14T22:05:44.108Z,90.70
2023-05-14T22:08:12.549Z,90.70
2023-05-14T22:10:41.017Z,90.90
2023-05-14T22:13:11.122Z,91.20
2023-05-14T22:15:39.826Z,91.50
2023-05-14T22:18:08.327Z,91.70
2023-05-14T22:20:36.732Z,91.80
2023-05-14T22:23:05.093Z,91.90
2023-05-14T22:25:33.556Z,91.80
2023-05-14T22:28:01.882Z,91.70
2023-05-14T22:30:31.606Z,91.80
2023-05-14T22:33:00.040Z,91.90
2023-05-14T22:35:28.578Z,91.70
2023-05-14T22:37:56.921Z,91.60
2023-05-14T22:40:25.329Z,91.90
2023-05-14T22:42:53.905Z,92.00
2023-05-14T22:45:22.252Z,92.20
2023-05-14T22:47:52.138Z,92.30
2023-05-14T22:50:20.352Z,92.70
2023-05-14T22:52:48.389Z,92.90
2023-05-14T22:55:16.721Z,93.10
2023-05-14T22:57:45.359Z,93.20
2023-05-14T23:00:15.880Z,93.20
2023-05-14T23:02:44.773Z,93.30
2023-05-14T23:05:14.576Z,93.30
2023-05-14T23:07:42.922Z,93.30
2023-05-14T23:10:12.407Z,93.40
2023-05-14T23:12:40.689Z,93.30
2023-05-14T23:15:09.873Z,93.20
2023-05-14T23:17:39.091Z,93.10
2023-05-14T23:20:10.979Z,93.30
2023-05-14T23:22:40.800Z,93.40
2023-05-14T23:25:09.802Z,93.40
2023-05-14T23:27:38.382Z,93.40
2023-05-14T23:30:07.933Z,93.80
2023-05-14T23:32:36.399Z,93.60
2023-05-14T23:35:05.037Z,93.80
2023-05-14T23:37:33.661Z,94.00
2023-05-14T23:40:04.667Z,94.20
2023-05-14T23:42:32.973Z,94.70
2023-05-14T23:45:01.255Z,94.70
2023-05-14T23:47:29.663Z,94.90
2023-05-14T23:49:58.141Z,95.20
2023-05-14T23:52:26.573Z,95.40
2023-05-14T23:54:54.826Z,95.60
2023-05-14T23:57:24.573Z,95.70
2023-05-14T23:59:52.996Z,96.00
